createdAt,value
2017-05-18T00:02:03.647Z,46.9
2017-05-18T00:07:03.669Z,46.8
2017-05-18T00:12:04.000Z,46.8
2017-05-18T00:17:03.645Z,46.7
2017-05-18T00:22:03.675Z,46.7
2017-05-18T00:27:03.395Z,46.7
2017-05-18T00:32:04.050Z,46.6
2017-05-18T00:37:03.373Z,46.5
2017-05-18T00:42:03.438Z,46.5
2017-05-18T00:47:03.165Z,46.5
2017-05-18T00:52:03.746Z,46.4
2017-05-18T00:57:03.359Z,46.4
2017-05-18T01:32:03.506Z,46.2
2017-05-18T01:37:03.179Z,46.2
2017-05-18T01:42:03.680Z,46.2
2017-05-18T01:47:03.337Z,46.1
2017-05-18T01:52:03.253Z,46.0
2017-05-18T01:57:02.867Z,46.0
2017-05-18T02:02:03.581Z,46.0
2017-05-18T02:07:03.021Z,45.9
2017-05-18T02:12:03.712Z,45.8
2017-05-18T02:17:03.875Z,46.0
2017-05-18T02:22:03.462Z,45.9
2017-05-18T02:27:03.141Z,45.8
2017-05-18T02:32:03.783Z,44.9
2017-05-18T02:37:03.718Z,45.8
2017-05-18T02:42:03.446Z,45.7
2017-05-18T02:47:04.200Z,45.7
2017-05-18T02:52:03.137Z,45.7
2017-05-18T02:57:03.358Z,45.6
2017-05-18T03:02:14.386Z,45.4
2017-05-18T03:07:03.410Z,45.5
2017-05-18T03:12:03.845Z,45.6
2017-05-18T03:17:28.994Z,45.7
2017-05-18T03:22:03.781Z,45.5
2017-05-18T03:27:03.260Z,45.5
2017-05-18T03:32:27.490Z,45.3
2017-05-18T03:37:03.471Z,45.4
2017-05-18T03:42:03.222Z,45.5
2017-05-18T03:52:03.235Z,45.5
2017-05-18T03:57:03.744Z,45.6
2017-05-18T04:02:27.948Z,45.5
2017-05-18T04:07:03.751Z,45.6
2017-05-18T04:12:03.243Z,45.6
2017-05-18T04:17:28.812Z,45.6
2017-05-18T04:22:03.150Z,45.7
2017-05-18T04:27:03.577Z,45.5
2017-05-18T04:32:28.399Z,45.5
2017-05-18T04:37:03.643Z,45.5
2017-05-18T04:42:03.883Z,45.4
2017-05-18T04:47:28.147Z,45.3
2017-05-18T04:52:03.930Z,45.2
2017-05-18T04:57:03.316Z,45.1
2017-05-18T05:02:24.050Z,44.9
2017-05-18T05:07:03.762Z,44.9
2017-05-18T05:12:03.425Z,45.2
2017-05-18T05:17:28.544Z,45.1
2017-05-18T05:22:03.860Z,45.4
2017-05-18T05:27:03.295Z,45.5
2017-05-18T05:32:28.200Z,45.4
2017-05-18T05:37:03.098Z,45.4
2017-05-18T05:42:03.515Z,45.7
2017-05-18T05:47:25.156Z,45.5
2017-05-18T05:52:03.285Z,45.5
2017-05-18T05:57:03.688Z,45.5
2017-05-18T06:02:27.696Z,45.5
2017-05-18T06:07:03.386Z,45.5
2017-05-18T06:12:03.967Z,45.8
2017-05-18T06:17:23.894Z,45.9
2017-05-18T06:22:03.082Z,45.9
2017-05-18T06:27:03.513Z,46.1
2017-05-18T06:32:25.324Z,46.1
2017-05-18T06:37:03.824Z,46.0
2017-05-18T06:42:03.194Z,46.1
2017-05-18T06:47:25.610Z,46.2
2017-05-18T06:52:03.387Z,46.3
2017-05-18T06:57:03.134Z,46.0
2017-05-18T07:02:22.642Z,46.0
2017-05-18T07:07:03.517Z,46.0
2017-05-18T07:12:03.877Z,46.1
2017-05-18T07:17:23.803Z,46.5
2017-05-18T07:22:03.612Z,46.7
2017-05-18T07:27:03.947Z,46.6
2017-05-18T07:32:27.776Z,46.5
2017-05-18T07:37:03.528Z,46.7
2017-05-18T07:42:03.518Z,46.7
2017-05-18T07:47:29.037Z,46.8
2017-05-18T07:52:02.995Z,46.7
2017-05-18T07:57:03.901Z,46.7
2017-05-18T08:02:29.305Z,46.9
2017-05-18T08:07:03.586Z,46.9
2017-05-18T08:12:03.625Z,46.8
2017-05-18T08:17:24.139Z,46.8
2017-05-18T08:22:03.461Z,46.7
2017-05-18T08:27:03.435Z,46.9
2017-05-18T08:32:28.175Z,46.8
2017-05-18T08:37:03.735Z,46.3
2017-05-18T08:42:03.524Z,46.7
2017-05-18T08:47:25.342Z,46.8
2017-05-18T08:52:03.825Z,46.7
2017-05-18T08:57:02.948Z,46.9
2017-05-18T09:02:28.564Z,47.2
2017-05-18T09:07:03.355Z,47.0
2017-05-18T09:12:03.543Z,47.4
2017-05-18T09:17:25.400Z,47.4
2017-05-18T09:22:03.647Z,46.9
2017-05-18T09:27:03.671Z,46.9
2017-05-18T09:32:24.366Z,46.8
2017-05-18T09:37:03.707Z,46.6
2017-05-18T09:42:03.638Z,46.1
2017-05-18T09:47:28.005Z,46.3
2017-05-18T09:52:03.245Z,46.2
2017-05-18T09:57:03.530Z,46.3
2017-05-18T10:02:27.172Z,45.7
2017-05-18T10:07:03.355Z,46.1
2017-05-18T10:12:03.660Z,45.8
2017-05-18T10:17:28.677Z,46.1
2017-05-18T10:22:03.194Z,46.1
2017-05-18T10:27:03.326Z,46.1
2017-05-18T10:32:23.858Z,46.2
2017-05-18T10:37:03.643Z,46.3
2017-05-18T10:42:03.691Z,46.0
2017-05-18T10:47:28.223Z,46.6
2017-05-18T10:52:03.789Z,46.6
2017-05-18T10:57:03.127Z,46.2
2017-05-18T11:02:27.811Z,46.5
2017-05-18T11:07:03.407Z,46.4
2017-05-18T11:12:03.808Z,46.3
2017-05-18T11:17:25.456Z,46.5
2017-05-18T11:22:03.256Z,46.7
2017-05-18T11:27:03.468Z,46.7
2017-05-18T11:32:27.879Z,46.5
2017-05-18T11:37:03.947Z,46.4
2017-05-18T11:42:03.270Z,47.0
2017-05-18T11:47:23.172Z,47.0
2017-05-18T11:52:03.227Z,47.3
2017-05-18T11:57:03.089Z,47.0
2017-05-18T12:02:23.584Z,47.0
2017-05-18T12:07:03.392Z,46.9
2017-05-18T12:12:03.919Z,46.9
2017-05-18T12:17:24.134Z,47.0
2017-05-18T12:22:03.193Z,46.8
2017-05-18T12:27:03.110Z,46.8
2017-05-18T12:37:03.302Z,46.9
2017-05-18T12:42:03.385Z,46.8
2017-05-18T12:52:03.128Z,46.9
2017-05-18T12:57:03.797Z,46.9
2017-05-18T13:02:27.458Z,47.3
2017-05-18T13:07:03.297Z,47.1
2017-05-18T13:12:03.435Z,47.1
2017-05-18T13:17:29.280Z,47.0
2017-05-18T13:22:03.916Z,47.2
2017-05-18T13:27:03.157Z,47.4
2017-05-18T13:32:27.686Z,47.4
2017-05-18T13:37:03.880Z,47.6
2017-05-18T13:42:03.269Z,48.2
2017-05-18T13:47:28.986Z,48.5
2017-05-18T13:52:03.218Z,48.4
2017-05-18T13:57:03.432Z,48.6
2017-05-18T14:02:33.553Z,48.3
2017-05-18T14:07:03.369Z,48.3
2017-05-18T14:12:03.043Z,49.2
2017-05-18T14:17:24.322Z,49.2
2017-05-18T14:22:03.922Z,49.5
2017-05-18T14:27:03.559Z,49.6
2017-05-18T14:32:23.837Z,50.5
2017-05-18T14:37:03.528Z,50.5
2017-05-18T14:42:03.126Z,50.3
2017-05-18T14:47:29.051Z,50.6
2017-05-18T14:52:03.813Z,50.4
2017-05-18T14:57:03.874Z,50.8
2017-05-18T15:02:24.478Z,50.7
2017-05-18T15:07:03.244Z,50.8
2017-05-18T15:12:03.976Z,50.8
2017-05-18T15:17:23.859Z,50.8
2017-05-18T15:22:03.568Z,50.9
2017-05-18T15:27:03.198Z,50.4
2017-05-18T15:32:19.519Z,50.3
2017-05-18T15:37:03.837Z,49.7
2017-05-18T15:42:03.152Z,49.7
2017-05-18T15:47:28.576Z,49.0
2017-05-18T15:52:03.822Z,48.7
2017-05-18T15:57:03.312Z,48.8
2017-05-18T16:02:23.991Z,49.2
2017-05-18T16:07:03.794Z,49.4
2017-05-18T16:12:04.002Z,49.0
2017-05-18T16:17:23.846Z,49.0
2017-05-18T16:22:03.505Z,49.4
2017-05-18T16:27:03.557Z,49.4
2017-05-18T16:32:23.531Z,49.7
2017-05-18T16:37:03.465Z,49.2
2017-05-18T16:42:03.109Z,49.2
2017-05-18T16:47:24.208Z,49.2
2017-05-18T16:52:03.669Z,49.2
2017-05-18T16:57:03.588Z,48.3
2017-05-18T17:02:28.253Z,45.7
2017-05-18T17:07:03.841Z,45.1
2017-05-18T17:12:03.635Z,45.0
2017-05-18T17:17:28.291Z,46.2
2017-05-18T17:22:03.108Z,46.7
2017-05-18T17:27:03.816Z,46.3
2017-05-18T17:32:20.067Z,46.3
2017-05-18T17:37:03.864Z,44.4
2017-05-18T17:42:03.162Z,36.9
2017-05-18T17:47:17.640Z,36.9
2017-05-18T17:52:03.575Z,37.7
2017-05-18T17:57:03.285Z,42.0
2017-05-18T18:02:24.476Z,45.0
2017-05-18T18:07:03.210Z,45.0
2017-05-18T18:12:03.386Z,46.8
2017-05-18T18:22:04.026Z,48.7
2017-05-18T18:27:03.914Z,49.1
2017-05-18T18:32:19.565Z,49.3
2017-05-18T18:37:03.442Z,49.6
2017-05-18T18:42:03.318Z,49.6
2017-05-18T18:47:16.358Z,49.9
2017-05-18T18:52:03.495Z,50.1
2017-05-18T18:57:03.035Z,50.0
2017-05-18T19:02:11.657Z,50.1
2017-05-18T19:07:03.089Z,50.1
2017-05-18T19:12:03.679Z,50.1
2017-05-18T19:17:24.545Z,50.1
2017-05-18T19:22:03.140Z,50.3
2017-05-18T19:27:03.364Z,50.3
2017-05-18T19:32:24.161Z,50.3
2017-05-18T19:37:03.239Z,50.2
2017-05-18T19:42:03.848Z,50.0
2017-05-18T19:47:10.707Z,50.1
2017-05-18T19:52:03.126Z,50.0
2017-05-18T19:57:03.097Z,50.0
2017-05-18T20:02:05.846Z,49.8
2017-05-18T20:07:03.635Z,49.9
2017-05-18T20:12:03.078Z,49.9
2017-05-18T20:17:04.173Z,50.0
2017-05-18T20:22:03.177Z,49.8
2017-05-18T20:27:03.097Z,49.7
2017-05-18T20:32:03.967Z,49.7
2017-05-18T20:37:03.132Z,49.7
2017-05-18T20:42:03.388Z,49.6
2017-05-18T20:47:03.355Z,49.6
2017-05-18T20:52:03.038Z,49.7
2017-05-18T20:57:03.233Z,49.7
2017-05-18T21:02:03.195Z,49.6
2017-05-18T21:07:03.020Z,49.6
2017-05-18T21:12:03.254Z,49.7
2017-05-18T21:17:03.687Z,49.6
2017-05-18T21:22:03.308Z,49.6
2017-05-18T21:27:04.016Z,49.6
2017-05-18T21:32:03.334Z,49.6
2017-05-18T21:37:03.164Z,49.4
2017-05-18T21:42:02.981Z,49.4
2017-05-18T21:47:03.496Z,49.4
2017-05-18T21:52:03.647Z,49.5
2017-05-18T21:57:03.922Z,49.4
2017-05-18T22:02:03.689Z,49.6
2017-05-18T22:07:03.207Z,49.3
2017-05-18T22:12:03.593Z,49.3
2017-05-18T22:22:04.190Z,49.3
2017-05-18T22:27:03.747Z,49.4
2017-05-18T22:32:03.784Z,49.3
2017-05-18T22:37:03.132Z,49.3
2017-05-18T22:42:03.778Z,49.2
2017-05-18T22:47:03.430Z,49.1
2017-05-18T22:52:03.595Z,49.1
2017-05-18T22:57:03.235Z,49.1
2017-05-18T23:02:03.121Z,49.3
2017-05-18T23:07:03.884Z,49.1
2017-05-18T23:12:03.921Z,49.1
2017-05-18T23:17:03.685Z,49.1
2017-05-18T23:22:03.236Z,49.2
2017-05-18T23:27:03.830Z,49.2
2017-05-18T23:32:03.435Z,49.0
2017-05-18T23:37:03.657Z,49.0
2017-05-18T23:42:03.831Z,49.0
2017-05-18T23:47:03.391Z,48.9
2017-05-18T23:52:03.313Z,48.9
2017-05-18T23:57:03.502Z,48.9
